Buntingford, United Kingdom
Current Conditions -  °F | °C
As of 3:50 AM on Thursday 18 Dec 2014 (Local Time) from EGSS Reporting Station
Overcast Overcast  
Wind Chill: 12°   Ceiling: 1000
Heat Index: 12°   Visibility: 6mi
Dew Point: 11°   Wind: 10mph
Humidity: 94%   Direction: 250°WSW
Pressure: 29.77"   Gusts: NA
Location:  51.95°N, 0.02°W
Report Text: EGSS 180350Z 25009KT 9999 OVC010 12/11 Q1008
Loading
Personal Weather Stations






























Interactive Weather Map New forecast layout! Learn more

10-Day Weather Forecast

Advertisements
Track Severe Weather on mobile